createdAt,value
2023-04-17T00:01:13.866Z,2.13
2023-04-17T00:04:03.300Z,1.95
2023-04-17T00:06:54.453Z,2.05
2023-04-17T00:09:43.788Z,2.28
2023-04-17T00:12:33.118Z,1.98
2023-04-17T00:15:22.394Z,2.17
2023-04-17T00:18:11.789Z,2.63
2023-04-17T00:21:01.225Z,1.83
2023-04-17T00:23:52.147Z,1.90
2023-04-17T00:26:41.897Z,2.15
2023-04-17T00:29:32.797Z,1.80
2023-04-17T00:32:23.003Z,2.83
2023-04-17T00:35:12.571Z,1.83
2023-04-17T00:38:02.056Z,2.00
2023-04-17T00:40:52.807Z,1.70
2023-04-17T00:43:42.800Z,1.85
2023-04-17T00:46:32.684Z,2.10
2023-04-17T00:49:22.838Z,2.03
2023-04-17T00:52:12.322Z,1.90
2023-04-17T00:55:01.561Z,2.05
2023-04-17T00:57:52.729Z,1.80
2023-04-17T01:00:41.993Z,2.15
2023-04-17T01:03:34.332Z,2.05
2023-04-17T01:06:23.699Z,2.30
2023-04-17T01:09:15.188Z,1.90
2023-04-17T01:12:22.397Z,2.20
2023-04-17T01:15:13.583Z,2.08
2023-04-17T01:18:03.784Z,1.98
2023-04-17T01:20:53.060Z,1.98
2023-04-17T01:23:46.519Z,2.40
2023-04-17T01:26:38.415Z,2.40
2023-04-17T01:29:27.914Z,2.50
2023-04-17T01:32:19.002Z,2.38
2023-04-17T01:35:09.208Z,2.45
2023-04-17T01:37:58.403Z,2.40
2023-04-17T01:40:47.753Z,2.85
2023-04-17T01:43:40.884Z,2.20
2023-04-17T01:46:30.183Z,2.50
2023-04-17T01:49:19.772Z,2.30
2023-04-17T01:52:09.078Z,2.45
2023-04-17T01:54:58.487Z,2.58
2023-04-17T01:57:48.550Z,2.63
2023-04-17T02:00:39.314Z,2.53
2023-04-17T02:03:28.649Z,2.35
2023-04-17T02:06:18.019Z,2.78
2023-04-17T02:09:07.413Z,2.65
2023-04-17T02:12:01.866Z,2.45
2023-04-17T02:14:51.055Z,2.38
2023-04-17T02:17:41.770Z,2.72
2023-04-17T02:20:33.212Z,2.42
2023-04-17T02:23:22.561Z,2.80
2023-04-17T02:26:11.978Z,3.20
2023-04-17T02:29:01.499Z,4.05
2023-04-17T02:31:50.924Z,3.92
2023-04-17T02:34:41.721Z,5.07
2023-04-17T02:37:31.179Z,4.50
2023-04-17T02:40:20.837Z,4.97
2023-04-17T02:43:13.362Z,4.20
2023-04-17T02:46:02.625Z,4.35
2023-04-17T02:48:52.394Z,4.75
2023-04-17T02:51:45.027Z,5.20
2023-04-17T02:54:34.478Z,5.53
2023-04-17T02:57:24.514Z,6.47
2023-04-17T03:00:15.332Z,7.20
2023-04-17T03:03:05.078Z,6.90
2023-04-17T03:05:54.542Z,7.28
2023-04-17T03:08:45.359Z,6.25
2023-04-17T03:11:34.681Z,6.03
2023-04-17T03:14:23.988Z,6.22
2023-04-17T03:17:15.265Z,6.00
2023-04-17T03:20:06.163Z,5.93
2023-04-17T03:22:55.959Z,6.15
2023-04-17T03:25:46.691Z,5.95
2023-04-17T03:28:37.375Z,5.40
2023-04-17T03:31:28.093Z,5.50
2023-04-17T03:34:18.113Z,6.20
2023-04-17T03:37:07.468Z,5.20
2023-04-17T03:39:57.151Z,5.47
2023-04-17T03:42:49.674Z,4.93
2023-04-17T03:45:39.010Z,4.88
2023-04-17T03:48:28.297Z,4.63
2023-04-17T03:51:18.030Z,4.60
2023-04-17T03:54:08.434Z,4.57
2023-04-17T03:56:57.729Z,4.20
2023-04-17T03:59:48.893Z,4.20
2023-04-17T04:02:38.387Z,3.80
2023-04-17T04:05:28.141Z,3.95
2023-04-17T04:08:18.613Z,4.40
2023-04-17T04:11:11.831Z,3.83
2023-04-17T04:14:02.054Z,3.60
2023-04-17T04:16:53.017Z,3.45
2023-04-17T04:19:43.679Z,3.70
2023-04-17T04:22:34.938Z,4.00
2023-04-17T04:25:25.897Z,3.80
2023-04-17T04:28:31.686Z,3.92
2023-04-17T04:31:22.184Z,3.55
2023-04-17T04:34:13.534Z,3.78
2023-04-17T04:37:03.461Z,3.90
2023-04-17T04:40:12.613Z,3.95
2023-04-17T04:43:04.589Z,3.97
2023-04-17T04:46:00.490Z,3.80
2023-04-17T04:48:53.615Z,3.72
2023-04-17T04:51:44.516Z,3.78
2023-04-17T04:54:33.857Z,4.07
2023-04-17T04:57:24.643Z,4.03
2023-04-17T05:00:18.742Z,4.30
2023-04-17T05:03:12.020Z,4.22
2023-04-17T05:06:02.707Z,5.07
2023-04-17T05:09:01.304Z,5.22
2023-04-17T05:11:52.871Z,6.20
2023-04-17T05:14:42.548Z,5.82
2023-04-17T05:17:32.083Z,5.78
2023-04-17T05:20:21.920Z,6.25
2023-04-17T05:23:16.282Z,6.78
2023-04-17T05:26:07.448Z,6.32
2023-04-17T05:28:56.858Z,6.65
2023-04-17T05:34:53.640Z,5.97
2023-04-17T05:37:46.822Z,6.20
2023-04-17T05:40:36.308Z,6.10
2023-04-17T05:43:26.896Z,6.15
2023-04-17T05:46:16.997Z,6.75
2023-04-17T05:49:06.482Z,6.32
2023-04-17T05:51:55.990Z,7.32
2023-04-17T05:54:45.569Z,7.32
2023-04-17T05:57:34.809Z,6.97
2023-04-17T06:00:26.682Z,6.00
2023-04-17T06:03:21.973Z,6.47
2023-04-17T06:06:18.187Z,6.28
2023-04-17T06:09:09.736Z,6.35
2023-04-17T06:12:00.388Z,7.45
2023-04-17T06:14:49.684Z,6.78
2023-04-17T06:17:43.814Z,6.40
2023-04-17T06:20:33.132Z,7.60
2023-04-17T06:23:25.026Z,7.22
2023-04-17T06:26:14.362Z,7.13
2023-04-17T06:29:04.983Z,7.05
2023-04-17T06:31:55.904Z,7.28
2023-04-17T06:37:47.616Z,7.35
2023-04-17T06:40:37.064Z,7.18
2023-04-17T06:43:28.711Z,8.38
2023-04-17T06:46:18.304Z,9.48
2023-04-17T06:49:07.764Z,10.00
2023-04-17T06:51:58.751Z,10.63
2023-04-17T06:54:48.103Z,10.65
2023-04-17T06:57:38.211Z,9.82
2023-04-17T07:00:27.672Z,9.48
2023-04-17T07:03:17.110Z,9.07
2023-04-17T07:06:06.977Z,8.77
2023-04-17T07:08:57.708Z,8.90
2023-04-17T07:11:46.843Z,7.60
2023-04-17T07:14:36.566Z,7.45
2023-04-17T07:17:27.352Z,7.07
2023-04-17T07:20:16.864Z,6.70
2023-04-17T07:23:06.110Z,5.88
2023-04-17T07:25:56.851Z,6.75
2023-04-17T07:28:46.206Z,6.70
2023-04-17T07:31:35.482Z,6.35
2023-04-17T07:34:25.321Z,6.95
2023-04-17T07:37:15.136Z,7.20
2023-04-17T07:40:09.059Z,6.38
2023-04-17T07:42:59.649Z,6.55
2023-04-17T07:45:49.183Z,6.60
2023-04-17T07:48:38.480Z,7.20
2023-04-17T07:51:27.918Z,6.63
2023-04-17T07:54:17.136Z,6.65
2023-04-17T07:57:08.442Z,7.40
2023-04-17T07:59:59.174Z,6.45
2023-04-17T08:02:48.808Z,6.25
2023-04-17T08:05:38.173Z,6.93
2023-04-17T08:08:27.598Z,6.53
2023-04-17T08:11:17.232Z,6.57
2023-04-17T08:14:06.530Z,6.13
2023-04-17T08:16:58.376Z,5.90
2023-04-17T08:19:47.665Z,5.20
2023-04-17T08:22:41.545Z,5.65
2023-04-17T08:25:31.225Z,4.57
2023-04-17T08:28:20.540Z,4.78
2023-04-17T08:31:11.017Z,4.30
2023-04-17T08:34:12.902Z,4.20
2023-04-17T08:37:03.921Z,4.45
2023-04-17T08:39:53.875Z,3.90
2023-04-17T08:42:44.453Z,3.90
2023-04-17T08:45:36.568Z,4.00
2023-04-17T08:48:26.307Z,3.92
2023-04-17T08:51:17.171Z,3.88
2023-04-17T08:54:06.921Z,3.60
2023-04-17T08:56:57.086Z,3.70
2023-04-17T08:59:47.291Z,5.18
2023-04-17T09:02:55.204Z,5.93
2023-04-17T09:05:46.739Z,6.03
2023-04-17T09:08:37.679Z,5.95
2023-04-17T09:11:27.544Z,5.68
2023-04-17T09:14:33.058Z,5.68
2023-04-17T09:17:23.059Z,4.93
2023-04-17T09:20:13.290Z,5.47
2023-04-17T09:23:05.878Z,7.75
2023-04-17T09:26:12.439Z,6.80
2023-04-17T09:29:08.813Z,6.65
2023-04-17T09:31:58.162Z,7.18
2023-04-17T09:34:47.421Z,7.07
2023-04-17T09:37:51.642Z,7.78
2023-04-17T09:40:45.304Z,8.00
2023-04-17T09:43:44.378Z,8.00
2023-04-17T09:46:39.345Z,7.43
2023-04-17T09:49:40.567Z,7.45
2023-04-17T09:52:31.096Z,6.97
2023-04-17T09:55:22.618Z,9.50
2023-04-17T09:58:12.438Z,5.68
2023-04-17T10:01:03.382Z,5.60
2023-04-17T10:03:52.895Z,5.55
2023-04-17T10:06:42.394Z,4.63
2023-04-17T10:09:31.999Z,4.82
2023-04-17T10:12:22.515Z,4.72
2023-04-17T10:15:16.030Z,5.20
2023-04-17T10:18:24.451Z,5.70
2023-04-17T10:21:25.503Z,4.70
2023-04-17T10:24:27.180Z,3.97
2023-04-17T10:27:48.638Z,4.00
2023-04-17T10:30:55.578Z,3.85
2023-04-17T10:33:52.004Z,4.20
2023-04-17T10:36:50.976Z,4.07
2023-04-17T10:40:01.790Z,4.70
2023-04-17T10:43:12.348Z,4.60
2023-04-17T10:46:07.412Z,4.30
2023-04-17T10:48:58.426Z,4.60
2023-04-17T10:51:47.594Z,4.60
2023-04-17T10:54:37.026Z,5.13
2023-04-17T10:58:15.360Z,4.10
2023-04-17T11:01:12.532Z,3.88
2023-04-17T11:04:03.276Z,4.10
2023-04-17T11:06:54.361Z,3.70
2023-04-17T11:09:52.365Z,4.18
2023-04-17T11:12:41.708Z,5.55
2023-04-17T11:15:32.565Z,5.25
2023-04-17T11:18:23.216Z,4.63
2023-04-17T11:21:15.059Z,4.30
2023-04-17T11:24:04.629Z,4.60
2023-04-17T11:26:54.135Z,5.13
2023-04-17T11:29:43.492Z,4.65
2023-04-17T11:32:37.790Z,4.32
2023-04-17T11:35:32.316Z,4.70
2023-04-17T11:38:24.476Z,4.28
2023-04-17T11:41:13.872Z,4.28
2023-04-17T11:44:03.506Z,3.92
2023-04-17T11:46:53.151Z,4.10
2023-04-17T11:49:42.468Z,4.13
2023-04-17T11:52:31.729Z,3.88
2023-04-17T11:55:22.414Z,4.50
2023-04-17T11:58:13.818Z,6.18
2023-04-17T12:01:06.624Z,3.72
2023-04-17T12:03:57.494Z,4.63
2023-04-17T12:06:46.909Z,5.95
2023-04-17T12:09:37.255Z,5.47
2023-04-17T12:12:29.234Z,5.05
2023-04-17T12:15:18.735Z,4.78
2023-04-17T12:18:09.474Z,4.80
2023-04-17T12:20:58.647Z,5.18
2023-04-17T12:23:51.379Z,3.90
2023-04-17T12:32:32.066Z,4.68
2023-04-17T12:35:21.751Z,4.15
2023-04-17T12:38:11.041Z,4.20
2023-04-17T12:41:00.437Z,4.60
2023-04-17T12:43:49.646Z,4.68
2023-04-17T12:46:40.573Z,4.78
2023-04-17T12:49:30.015Z,4.88
2023-04-17T12:52:19.335Z,4.45
2023-04-17T12:55:10.104Z,5.95
2023-04-17T12:57:59.806Z,3.70
2023-04-17T13:00:49.084Z,4.38
2023-04-17T13:03:39.960Z,3.90
2023-04-17T13:06:29.446Z,3.92
2023-04-17T13:09:20.087Z,3.67
2023-04-17T13:12:09.529Z,4.00
2023-04-17T13:14:59.085Z,3.83
2023-04-17T13:17:48.587Z,3.97
2023-04-17T13:20:39.298Z,4.00
2023-04-17T13:23:28.546Z,3.80
2023-04-17T13:26:17.767Z,3.88
2023-04-17T13:29:06.906Z,4.15
2023-04-17T13:31:56.163Z,4.00
2023-04-17T13:34:45.467Z,4.40
2023-04-17T13:37:36.150Z,4.15
2023-04-17T13:40:25.384Z,4.45
2023-04-17T13:43:14.650Z,4.38
2023-04-17T13:46:04.241Z,4.00
2023-04-17T13:48:53.485Z,4.20
2023-04-17T13:51:42.800Z,3.55
2023-04-17T13:54:33.435Z,3.72
2023-04-17T13:57:22.601Z,3.70
2023-04-17T14:00:13.489Z,3.75
2023-04-17T14:03:03.385Z,3.83
2023-04-17T14:05:52.834Z,4.35
2023-04-17T14:08:44.264Z,3.40
2023-04-17T14:11:35.153Z,3.80
2023-04-17T14:14:24.337Z,3.95
2023-04-17T14:17:14.081Z,3.63
2023-04-17T14:20:03.813Z,2.70
2023-04-17T14:22:54.410Z,3.03
2023-04-17T14:25:43.810Z,2.45
2023-04-17T14:28:35.131Z,2.80
2023-04-17T14:31:24.446Z,2.72
2023-04-17T14:34:14.017Z,2.67
2023-04-17T14:37:03.369Z,3.22
2023-04-17T14:39:52.740Z,2.42
2023-04-17T14:42:53.526Z,2.53
2023-04-17T14:45:44.832Z,2.80
2023-04-17T14:48:41.075Z,3.17
2023-04-17T14:51:41.397Z,2.53
2023-04-17T14:54:30.626Z,2.58
2023-04-17T14:57:19.822Z,2.25
2023-04-17T15:00:11.120Z,2.58
2023-04-17T15:03:02.105Z,2.65
2023-04-17T15:05:52.445Z,2.50
2023-04-17T15:08:41.786Z,2.80
2023-04-17T15:11:31.014Z,2.65
2023-04-17T15:14:21.796Z,2.55
2023-04-17T15:17:11.009Z,2.55
2023-04-17T15:20:01.600Z,2.72
2023-04-17T15:22:52.677Z,2.85
2023-04-17T15:25:42.345Z,2.80
2023-04-17T15:28:33.154Z,2.75
2023-04-17T15:31:22.681Z,3.40
2023-04-17T15:34:13.634Z,2.97
2023-04-17T15:37:07.203Z,3.38
2023-04-17T15:39:56.948Z,2.90
2023-04-17T15:42:46.207Z,5.45
2023-04-17T15:45:35.729Z,4.53
2023-04-17T15:48:25.121Z,3.33
2023-04-17T15:51:14.595Z,3.25
2023-04-17T15:54:06.081Z,3.55
2023-04-17T15:56:56.201Z,3.72
2023-04-17T15:59:45.494Z,3.85
2023-04-17T16:02:35.006Z,3.85
2023-04-17T16:05:24.283Z,3.95
2023-04-17T16:08:13.533Z,3.47
2023-04-17T16:11:04.316Z,4.07
2023-04-17T16:13:53.626Z,3.92
2023-04-17T16:16:43.046Z,4.03
2023-04-17T16:19:32.690Z,3.90
2023-04-17T16:22:21.854Z,3.95
2023-04-17T16:25:12.755Z,4.25
2023-04-17T16:28:03.389Z,4.35
2023-04-17T16:30:52.713Z,8.48
2023-04-17T16:33:42.148Z,4.72
2023-04-17T16:36:33.196Z,5.90
2023-04-17T16:39:22.932Z,4.90
2023-04-17T16:42:12.286Z,4.60
2023-04-17T16:45:02.986Z,5.18
2023-04-17T16:47:52.241Z,5.25
2023-04-17T16:50:41.507Z,6.13
2023-04-17T16:53:30.773Z,5.05
2023-04-17T16:56:20.376Z,3.72
2023-04-17T16:59:09.726Z,4.05
2023-04-17T17:02:02.509Z,4.10
2023-04-17T17:07:40.958Z,4.22
2023-04-17T17:10:30.623Z,5.13
2023-04-17T17:13:19.814Z,5.05
2023-04-17T17:16:09.053Z,5.07
2023-04-17T17:19:00.279Z,4.40
2023-04-17T17:21:50.023Z,4.65
2023-04-17T17:24:39.921Z,4.40
2023-04-17T17:27:29.246Z,4.88
2023-04-17T17:30:18.661Z,4.53
2023-04-17T17:33:08.001Z,5.10
2023-04-17T17:35:58.808Z,4.80
2023-04-17T17:38:50.953Z,4.57
2023-04-17T17:41:40.439Z,4.57
2023-04-17T17:44:29.710Z,4.28
2023-04-17T17:47:18.935Z,4.28
2023-04-17T17:50:09.885Z,4.35
2023-04-17T17:53:00.601Z,5.25
2023-04-17T17:55:52.772Z,4.97
2023-04-17T17:58:42.174Z,9.05
2023-04-17T18:01:31.610Z,6.90
2023-04-17T18:04:21.140Z,5.00
2023-04-17T18:07:10.712Z,4.75
2023-04-17T18:10:01.461Z,4.20
2023-04-17T18:12:50.793Z,4.80
2023-04-17T18:15:40.102Z,3.83
2023-04-17T18:18:29.388Z,3.90
2023-04-17T18:21:18.666Z,3.47
2023-04-17T18:24:09.135Z,4.40
2023-04-17T18:27:00.154Z,5.00
2023-04-17T18:29:49.552Z,6.00
2023-04-17T18:32:38.876Z,5.65
2023-04-17T18:35:28.145Z,5.80
2023-04-17T18:38:17.586Z,5.00
2023-04-17T18:41:06.976Z,4.18
2023-04-17T18:43:57.666Z,5.18
2023-04-17T18:46:47.876Z,4.40
2023-04-17T18:49:37.123Z,4.28
2023-04-17T18:52:26.340Z,4.50
2023-04-17T18:55:17.589Z,4.93
2023-04-17T18:58:07.389Z,5.00
2023-04-17T19:00:58.586Z,4.22
2023-04-17T19:03:47.837Z,4.50
2023-04-17T19:06:37.336Z,3.92
2023-04-17T19:09:26.832Z,3.92
2023-04-17T19:12:16.814Z,3.80
2023-04-17T19:15:07.971Z,3.65
2023-04-17T19:17:58.631Z,4.20
2023-04-17T19:20:48.053Z,4.25
2023-04-17T19:23:38.622Z,4.45
2023-04-17T19:26:27.967Z,4.25
2023-04-17T19:29:17.200Z,4.28
2023-04-17T19:32:07.055Z,4.57
2023-04-17T19:34:57.683Z,5.05
2023-04-17T19:37:46.931Z,4.82
2023-04-17T19:40:36.136Z,5.32
2023-04-17T19:43:25.439Z,5.05
2023-04-17T19:46:15.299Z,5.72
2023-04-17T19:49:04.880Z,5.85
2023-04-17T19:51:55.471Z,5.55
2023-04-17T19:54:46.292Z,6.40
2023-04-17T19:57:36.606Z,6.38
2023-04-17T20:00:26.084Z,6.20
2023-04-17T20:03:15.514Z,5.63
2023-04-17T20:06:05.065Z,6.03
2023-04-17T20:08:58.505Z,5.80
2023-04-17T20:11:47.763Z,5.70
2023-04-17T20:14:36.998Z,5.65
2023-04-17T20:17:26.609Z,6.00
2023-04-17T20:20:16.011Z,6.22
2023-04-17T20:23:05.311Z,6.13
2023-04-17T20:25:56.057Z,6.32
2023-04-17T20:28:45.348Z,6.47
2023-04-17T20:31:36.451Z,5.85
2023-04-17T20:34:26.815Z,5.88
2023-04-17T20:37:16.053Z,6.70
2023-04-17T20:40:10.723Z,5.65
2023-04-17T20:43:01.308Z,6.90
2023-04-17T20:45:51.490Z,6.35
2023-04-17T20:48:41.037Z,6.20
2023-04-17T20:51:30.449Z,6.18
2023-04-17T20:54:19.659Z,6.65
2023-04-17T20:57:08.912Z,6.93
2023-04-17T20:59:59.558Z,6.38
2023-04-17T21:02:48.864Z,6.35
2023-04-17T21:05:38.743Z,6.20
2023-04-17T21:08:28.161Z,6.25
2023-04-17T21:11:17.322Z,6.40
2023-04-17T21:14:06.541Z,6.10
2023-04-17T21:16:58.622Z,6.20
2023-04-17T21:19:47.861Z,6.43
2023-04-17T21:22:37.751Z,5.55
2023-04-17T21:25:27.773Z,5.93
2023-04-17T21:28:16.949Z,6.07
2023-04-17T21:31:10.375Z,6.68
2023-04-17T21:34:01.534Z,6.68
2023-04-17T21:36:50.988Z,7.25
2023-04-17T21:39:40.274Z,7.72
2023-04-17T21:42:29.672Z,7.82
2023-04-17T21:45:19.075Z,8.25
2023-04-17T21:48:08.492Z,7.88
2023-04-17T21:51:04.289Z,8.15
2023-04-17T21:53:53.502Z,8.32
2023-04-17T21:56:42.747Z,7.53
2023-04-17T21:59:32.279Z,8.05
2023-04-17T22:02:21.668Z,8.52
2023-04-17T22:05:11.734Z,7.47
2023-04-17T22:08:02.507Z,7.47
2023-04-17T22:10:53.033Z,7.65
2023-04-17T22:13:42.975Z,7.70
2023-04-17T22:16:32.468Z,7.45
2023-04-17T22:19:22.365Z,8.38
2023-04-17T22:22:11.754Z,9.80
2023-04-17T22:25:02.630Z,8.10
2023-04-17T22:27:52.697Z,8.23
2023-04-17T22:30:42.239Z,8.70
2023-04-17T22:33:31.738Z,8.90
2023-04-17T22:36:21.122Z,8.85
2023-04-17T22:39:10.483Z,8.77
2023-04-17T22:42:01.255Z,10.02
2023-04-17T22:44:50.714Z,9.05
2023-04-17T22:47:40.210Z,9.48
2023-04-17T22:50:30.644Z,9.82
2023-04-17T22:53:20.198Z,10.43
2023-04-17T22:56:13.969Z,9.70
2023-04-17T22:59:05.141Z,10.70
2023-04-17T23:01:54.874Z,11.13
2023-04-17T23:04:44.611Z,10.27
2023-04-17T23:07:34.488Z,9.52
2023-04-17T23:10:23.829Z,9.70
2023-04-17T23:13:13.229Z,9.85
2023-04-17T23:16:04.489Z,10.32
2023-04-17T23:18:54.117Z,9.77
2023-04-17T23:21:43.579Z,9.45
2023-04-17T23:24:35.746Z,10.00
2023-04-17T23:27:25.996Z,10.77
2023-04-17T23:30:16.364Z,10.25
2023-04-17T23:33:07.388Z,10.52
2023-04-17T23:35:56.680Z,10.15
2023-04-17T23:38:46.118Z,10.80
2023-04-17T23:41:35.713Z,9.88
2023-04-17T23:44:25.377Z,9.63
2023-04-17T23:47:15.271Z,9.32
2023-04-17T23:50:07.489Z,9.75
2023-04-17T23:52:57.017Z,10.05
2023-04-17T23:55:46.660Z,9.23
2023-04-17T23:58:35.914Z,10.75
